createdAt,value
2023-01-19T00:00:48.872Z,96552.27
2023-01-19T00:03:28.113Z,96554.77
2023-01-19T00:05:56.516Z,96553.60
2023-01-19T00:08:24.751Z,96552.09
2023-01-19T00:10:52.914Z,96555.11
2023-01-19T00:13:21.354Z,96554.61
2023-01-19T00:15:49.690Z,96553.78
2023-01-19T00:18:18.043Z,96552.23
2023-01-19T00:20:46.851Z,96558.95
2023-01-19T00:23:15.841Z,96561.21
2023-01-19T00:25:44.422Z,96557.19
2023-01-19T00:28:14.764Z,96563.80
2023-01-19T00:30:43.541Z,96558.48
2023-01-19T00:33:13.831Z,96556.95
2023-01-19T00:35:42.195Z,96556.52
2023-01-19T00:38:11.191Z,96561.26
2023-01-19T00:40:39.561Z,96567.34
2023-01-19T00:43:07.762Z,96571.64
2023-01-19T00:45:35.981Z,96574.08
2023-01-19T00:48:04.601Z,96574.89
2023-01-19T00:50:33.387Z,96575.02
2023-01-19T00:53:02.797Z,96570.19
2023-01-19T00:55:32.528Z,96567.73
2023-01-19T00:58:02.063Z,96565.70
2023-01-19T01:00:30.538Z,96562.59
2023-01-19T01:03:00.503Z,96558.81
2023-01-19T01:05:29.080Z,96555.66
2023-01-19T01:07:57.344Z,96550.00
2023-01-19T01:10:28.604Z,96548.20
2023-01-19T01:12:58.702Z,96546.15
2023-01-19T01:15:29.217Z,96548.83
2023-01-19T01:17:57.377Z,96552.83
2023-01-19T01:20:29.431Z,96555.32
2023-01-19T01:22:57.837Z,96552.92
2023-01-19T01:25:27.709Z,96556.61
2023-01-19T01:27:56.070Z,96551.96
2023-01-19T01:30:24.280Z,96548.80
2023-01-19T01:32:52.456Z,96549.48
2023-01-19T01:35:20.684Z,96545.91
2023-01-19T01:37:48.872Z,96547.48
2023-01-19T01:40:18.272Z,96542.31
2023-01-19T01:42:46.598Z,96546.20
2023-01-19T01:45:32.763Z,96559.02
2023-01-19T01:48:05.692Z,96566.33
2023-01-19T01:50:38.385Z,96570.31
2023-01-19T01:53:11.834Z,96573.05
2023-01-19T01:55:48.807Z,96575.69
2023-01-19T01:58:20.730Z,96570.73
2023-01-19T02:01:08.929Z,96563.22
2023-01-19T02:03:38.614Z,96552.23
2023-01-19T02:06:09.455Z,96548.53
2023-01-19T02:09:03.121Z,96550.27
2023-01-19T02:11:51.688Z,96545.84
2023-01-19T02:14:19.902Z,96550.11
2023-01-19T02:16:48.475Z,96555.17
2023-01-19T02:19:31.286Z,96562.53
2023-01-19T02:22:06.163Z,96569.59
2023-01-19T02:24:35.327Z,96570.33
2023-01-19T02:27:04.312Z,96569.59
2023-01-19T02:29:33.703Z,96569.09
2023-01-19T02:32:02.539Z,96575.27
2023-01-19T02:34:31.550Z,96576.40
2023-01-19T02:37:05.935Z,96577.07
2023-01-19T02:39:36.882Z,96572.57
2023-01-19T02:42:09.406Z,96576.98
2023-01-19T02:44:39.495Z,96578.67
2023-01-19T02:47:07.834Z,96572.37
2023-01-19T02:49:36.050Z,96568.02
2023-01-19T02:52:05.485Z,96564.64
2023-01-19T02:54:44.532Z,96570.27
2023-01-19T02:57:47.170Z,96567.19
2023-01-19T03:00:36.750Z,96564.99
2023-01-19T03:03:17.173Z,96569.05
2023-01-19T03:05:56.086Z,96571.19
2023-01-19T03:08:37.266Z,96571.64
2023-01-19T03:11:07.692Z,96567.45
2023-01-19T03:13:44.847Z,96570.30
2023-01-19T03:16:21.878Z,96572.85
2023-01-19T03:18:54.992Z,96574.91
2023-01-19T03:21:27.126Z,96580.09
2023-01-19T03:24:01.962Z,96574.88
2023-01-19T03:26:39.471Z,96571.93
2023-01-19T03:29:10.919Z,96566.80
2023-01-19T03:31:41.511Z,96564.31
2023-01-19T03:34:12.972Z,96565.35
2023-01-19T03:36:45.130Z,96570.35
2023-01-19T03:39:17.652Z,96567.69
2023-01-19T03:41:49.613Z,96563.77
2023-01-19T03:44:18.141Z,96557.64
2023-01-19T03:46:47.298Z,96559.04
2023-01-19T03:49:15.720Z,96562.11
2023-01-19T03:51:44.010Z,96563.46
2023-01-19T03:54:12.511Z,96567.38
2023-01-19T03:56:43.014Z,96571.00
2023-01-19T03:59:11.159Z,96575.58
2023-01-19T04:01:39.397Z,96577.02
2023-01-19T04:04:07.632Z,96583.17
2023-01-19T04:06:35.881Z,96589.27
2023-01-19T04:09:04.093Z,96590.80
2023-01-19T04:11:32.247Z,96597.27
2023-01-19T04:14:00.986Z,96599.82
2023-01-19T04:16:29.149Z,96595.57
2023-01-19T04:18:57.370Z,96592.32
2023-01-19T04:21:25.620Z,96589.33
2023-01-19T04:23:53.872Z,96590.55
2023-01-19T04:26:22.065Z,96592.92
2023-01-19T04:28:50.220Z,96599.80
2023-01-19T04:31:18.860Z,96609.84
2023-01-19T04:33:47.055Z,96618.49
2023-01-19T04:36:15.491Z,96624.44
2023-01-19T04:38:45.865Z,96627.52
2023-01-19T04:41:14.083Z,96624.89
2023-01-19T04:43:42.299Z,96619.59
2023-01-19T04:46:10.441Z,96616.77
2023-01-19T04:48:40.118Z,96614.70
2023-01-19T04:51:09.506Z,96616.81
2023-01-19T04:53:37.766Z,96606.98
2023-01-19T04:56:06.838Z,96599.77
2023-01-19T04:58:35.314Z,96610.60
2023-01-19T05:01:08.066Z,96625.52
2023-01-19T05:03:36.289Z,96642.44
2023-01-19T05:06:05.178Z,96651.25
2023-01-19T05:08:33.362Z,96649.30
2023-01-19T05:11:01.572Z,96652.25
2023-01-19T05:13:29.775Z,96658.27
2023-01-19T05:15:57.976Z,96660.73
2023-01-19T05:18:26.156Z,96659.69
2023-01-19T05:20:54.358Z,96668.88
2023-01-19T05:23:22.530Z,96670.04
2023-01-19T05:25:50.733Z,96666.36
2023-01-19T05:28:20.467Z,96662.85
2023-01-19T05:30:49.781Z,96663.79
2023-01-19T05:33:17.929Z,96660.48
2023-01-19T05:35:46.093Z,96659.92
2023-01-19T05:38:15.638Z,96657.27
2023-01-19T05:40:45.258Z,96656.39
2023-01-19T05:43:13.759Z,96658.71
2023-01-19T05:45:42.519Z,96664.29
2023-01-19T05:48:10.662Z,96664.79
2023-01-19T05:50:38.901Z,96663.58
2023-01-19T05:53:07.039Z,96657.48
2023-01-19T05:55:35.361Z,96652.15
2023-01-19T05:58:03.574Z,96653.13
2023-01-19T06:00:31.745Z,96655.09
2023-01-19T06:03:01.712Z,96654.20
2023-01-19T06:05:30.574Z,96654.31
2023-01-19T06:07:59.032Z,96653.33
2023-01-19T06:10:27.426Z,96657.08
2023-01-19T06:12:55.593Z,96654.11
2023-01-19T06:15:23.825Z,96649.38
2023-01-19T06:17:52.051Z,96646.57
2023-01-19T06:20:20.363Z,96648.98
2023-01-19T06:22:48.590Z,96644.58
2023-01-19T06:25:17.089Z,96646.95
2023-01-19T06:27:45.559Z,96658.86
2023-01-19T06:30:14.715Z,96657.79
2023-01-19T06:32:42.913Z,96651.59
2023-01-19T06:35:11.502Z,96655.48
2023-01-19T06:37:39.911Z,96665.09
2023-01-19T06:40:13.542Z,96681.19
2023-01-19T06:42:42.466Z,96693.21
2023-01-19T06:45:11.499Z,96692.83
2023-01-19T06:47:39.763Z,96693.45
2023-01-19T06:50:10.212Z,96702.11
2023-01-19T06:52:41.566Z,96709.33
2023-01-19T06:55:10.464Z,96714.92
2023-01-19T06:57:39.534Z,96723.49
2023-01-19T07:00:11.036Z,96726.95
2023-01-19T07:02:42.246Z,96733.88
2023-01-19T07:05:13.576Z,96744.71
2023-01-19T07:07:44.035Z,96753.64
2023-01-19T07:10:14.834Z,96758.48
2023-01-19T07:12:45.768Z,96765.89
2023-01-19T07:15:15.114Z,96777.86
2023-01-19T07:17:43.424Z,96777.30
2023-01-19T07:20:13.702Z,96771.70
2023-01-19T07:22:43.162Z,96770.19
2023-01-19T07:25:11.507Z,96774.72
2023-01-19T07:27:40.056Z,96778.91
2023-01-19T07:30:10.458Z,96782.89
2023-01-19T07:32:38.746Z,96784.80
2023-01-19T07:35:07.928Z,96783.14
2023-01-19T07:37:36.215Z,96778.45
2023-01-19T07:40:06.074Z,96777.98
2023-01-19T07:42:34.313Z,96779.44
2023-01-19T07:45:03.535Z,96776.70
2023-01-19T07:47:31.792Z,96772.58
2023-01-19T07:50:00.144Z,96769.66
2023-01-19T07:52:28.366Z,96765.30
2023-01-19T07:54:57.655Z,96761.73
2023-01-19T07:57:25.855Z,96762.21
2023-01-19T07:59:54.065Z,96763.48
2023-01-19T08:02:22.364Z,96753.52
2023-01-19T08:04:51.213Z,96754.55
2023-01-19T08:07:19.454Z,96749.95
2023-01-19T08:09:47.749Z,96757.92
2023-01-19T08:12:16.478Z,96771.30
2023-01-19T08:14:44.718Z,96783.86
2023-01-19T08:17:13.425Z,96795.08
2023-01-19T08:19:42.599Z,96799.88
2023-01-19T08:22:10.761Z,96806.81
2023-01-19T08:24:39.018Z,96806.73
2023-01-19T08:27:09.113Z,96813.14
2023-01-19T08:29:37.463Z,96817.58
2023-01-19T08:32:06.382Z,96817.58
2023-01-19T08:34:34.817Z,96820.45
2023-01-19T08:37:03.048Z,96820.83
2023-01-19T08:39:31.238Z,96809.42
2023-01-19T08:42:00.000Z,96806.88
2023-01-19T08:44:28.369Z,96817.64
2023-01-19T08:46:56.546Z,96812.98
2023-01-19T08:49:24.780Z,96812.27
2023-01-19T08:51:53.019Z,96820.13
2023-01-19T08:54:22.486Z,96804.73
2023-01-19T08:56:50.684Z,96788.13
2023-01-19T08:59:18.830Z,96802.19
2023-01-19T09:01:47.145Z,96807.65
2023-01-19T09:04:15.487Z,96800.92
2023-01-19T09:06:43.861Z,96799.92
2023-01-19T09:09:12.037Z,96793.20
2023-01-19T09:11:40.266Z,96789.34
2023-01-19T09:14:08.487Z,96793.73
2023-01-19T09:16:36.759Z,96796.48
2023-01-19T09:19:07.881Z,96809.41
2023-01-19T09:21:36.145Z,96818.48
2023-01-19T09:24:05.341Z,96829.83
2023-01-19T09:26:33.507Z,96820.11
2023-01-19T09:29:02.236Z,96819.89
2023-01-19T09:31:30.649Z,96825.34
2023-01-19T09:33:59.063Z,96818.67
2023-01-19T09:36:27.270Z,96821.92
2023-01-19T09:38:55.522Z,96819.90
2023-01-19T09:41:25.484Z,96817.79
2023-01-19T09:43:57.568Z,96829.52
2023-01-19T09:46:32.953Z,96830.27
2023-01-19T09:49:05.869Z,96830.15
2023-01-19T09:51:38.365Z,96823.61
2023-01-19T09:54:13.399Z,96816.73
2023-01-19T09:56:41.894Z,96817.70
2023-01-19T09:59:20.464Z,96817.66
2023-01-19T10:02:01.000Z,96812.91
2023-01-19T10:04:33.813Z,96810.81
2023-01-19T10:07:13.664Z,96815.29
2023-01-19T10:09:54.037Z,96818.79
2023-01-19T10:12:38.744Z,96815.87
2023-01-19T10:15:17.728Z,96808.77
2023-01-19T10:17:55.860Z,96799.02
2023-01-19T10:20:29.172Z,96793.86
2023-01-19T10:22:59.931Z,96795.08
2023-01-19T10:25:28.961Z,96800.73
2023-01-19T10:28:00.268Z,96798.00
2023-01-19T10:30:30.023Z,96793.55
2023-01-19T10:32:58.317Z,96787.95
2023-01-19T10:35:26.883Z,96778.33
2023-01-19T10:37:58.613Z,96778.52
2023-01-19T10:40:32.831Z,96784.55
2023-01-19T10:43:01.472Z,96781.27
2023-01-19T10:45:31.175Z,96780.66
2023-01-19T10:48:05.804Z,96779.13
2023-01-19T10:50:36.379Z,96779.94
2023-01-19T10:53:06.208Z,96776.40
2023-01-19T10:55:37.227Z,96774.84
2023-01-19T10:58:06.440Z,96782.83
2023-01-19T11:00:37.283Z,96786.95
2023-01-19T11:03:22.008Z,96787.98
2023-01-19T11:05:50.772Z,96787.02
2023-01-19T11:08:28.382Z,96782.96
2023-01-19T11:11:03.608Z,96781.95
2023-01-19T11:13:32.242Z,96782.86
2023-01-19T11:16:06.173Z,96780.84
2023-01-19T11:18:37.176Z,96782.83
2023-01-19T11:21:08.698Z,96777.29
2023-01-19T11:23:42.357Z,96775.83
2023-01-19T11:26:15.612Z,96771.84
2023-01-19T11:28:50.647Z,96763.11
2023-01-19T11:31:30.774Z,96761.21
2023-01-19T11:34:01.112Z,96754.70
2023-01-19T11:36:30.999Z,96752.02
2023-01-19T11:39:01.831Z,96753.83
2023-01-19T11:41:34.594Z,96752.84
2023-01-19T11:44:15.013Z,96750.98
2023-01-19T11:46:47.476Z,96750.86
2023-01-19T11:49:24.108Z,96751.08
2023-01-19T11:51:59.431Z,96751.23
2023-01-19T11:54:31.867Z,96751.75
2023-01-19T11:57:01.260Z,96751.63
2023-01-19T11:59:29.544Z,96749.25
2023-01-19T12:02:01.266Z,96747.76
2023-01-19T12:04:30.168Z,96756.98
2023-01-19T12:07:02.446Z,96752.86
2023-01-19T12:09:35.780Z,96756.83
2023-01-19T12:12:06.902Z,96759.92
2023-01-19T12:14:40.971Z,96764.95
2023-01-19T12:17:19.091Z,96756.11
2023-01-19T12:19:55.229Z,96757.92
2023-01-19T12:22:27.779Z,96754.42
2023-01-19T12:25:05.534Z,96753.40
2023-01-19T12:27:39.957Z,96755.60
2023-01-19T12:30:18.311Z,96747.77
2023-01-19T12:32:46.609Z,96749.09
2023-01-19T12:35:46.863Z,96750.98
2023-01-19T12:38:35.658Z,96751.61
2023-01-19T12:41:18.266Z,96753.59
2023-01-19T12:43:47.131Z,96754.11
2023-01-19T12:46:24.156Z,96754.40
2023-01-19T12:48:52.938Z,96751.52
2023-01-19T12:51:25.273Z,96746.49
2023-01-19T12:53:54.653Z,96747.57
2023-01-19T12:56:30.825Z,96752.39
2023-01-19T12:58:59.910Z,96755.42
2023-01-19T13:01:28.301Z,96758.77
2023-01-19T13:04:03.636Z,96760.10
2023-01-19T13:07:09.527Z,96763.14
2023-01-19T13:09:38.727Z,96766.94
2023-01-19T13:12:21.931Z,96767.22
2023-01-19T13:14:50.367Z,96767.28
2023-01-19T13:17:26.089Z,96771.48
2023-01-19T13:20:26.490Z,96771.84
2023-01-19T13:23:23.058Z,96773.92
2023-01-19T13:26:14.128Z,96774.13
2023-01-19T13:28:44.524Z,96775.55
2023-01-19T13:31:13.837Z,96776.98
2023-01-19T13:33:49.179Z,96779.80
2023-01-19T13:36:26.152Z,96782.62
2023-01-19T13:38:56.405Z,96787.33
2023-01-19T13:41:27.205Z,96788.86
2023-01-19T13:44:01.031Z,96789.06
2023-01-19T13:46:30.653Z,96791.15
2023-01-19T13:49:03.970Z,96801.06
2023-01-19T13:51:32.338Z,96804.23
2023-01-19T13:54:01.298Z,96805.73
2023-01-19T13:56:30.056Z,96805.70
2023-01-19T13:59:12.421Z,96805.83
2023-01-19T14:01:42.860Z,96809.73
2023-01-19T14:04:29.197Z,96813.98
2023-01-19T14:07:00.518Z,96815.91
2023-01-19T14:09:28.753Z,96818.55
2023-01-19T14:12:13.234Z,96824.21
2023-01-19T14:14:42.308Z,96820.92
2023-01-19T14:17:24.232Z,96821.89
2023-01-19T14:19:54.307Z,96827.52
2023-01-19T14:22:38.319Z,96826.18
2023-01-19T14:25:28.672Z,96828.79
2023-01-19T14:28:34.910Z,96831.45
2023-01-19T14:31:17.085Z,96832.48
2023-01-19T14:33:46.756Z,96833.92
2023-01-19T14:36:29.438Z,96835.68
2023-01-19T14:38:59.736Z,96838.19
2023-01-19T14:41:35.666Z,96840.33
2023-01-19T14:44:08.862Z,96843.21
2023-01-19T14:46:37.611Z,96845.80
2023-01-19T14:49:06.911Z,96846.26
2023-01-19T14:51:35.213Z,96849.20
2023-01-19T14:54:04.192Z,96853.73
2023-01-19T14:56:34.510Z,96857.55
2023-01-19T14:59:09.396Z,96855.25
2023-01-19T15:01:37.747Z,96854.47
2023-01-19T15:04:06.055Z,96854.60
2023-01-19T15:06:39.567Z,96863.09
2023-01-19T15:09:11.421Z,96861.54
2023-01-19T15:11:40.583Z,96855.91
2023-01-19T15:14:13.167Z,96857.24
2023-01-19T15:16:41.762Z,96862.15
2023-01-19T15:19:12.297Z,96862.13
2023-01-19T15:21:41.593Z,96859.75
2023-01-19T15:24:11.481Z,96860.48
2023-01-19T15:26:41.928Z,96861.49
2023-01-19T15:29:23.030Z,96861.88
2023-01-19T15:31:52.239Z,96861.88
2023-01-19T15:34:20.537Z,96862.33
2023-01-19T15:36:49.809Z,96863.15
2023-01-19T15:39:18.220Z,96867.11
2023-01-19T15:41:46.485Z,96867.48
2023-01-19T15:44:14.758Z,96873.61
2023-01-19T15:46:42.981Z,96874.63
2023-01-19T15:49:11.201Z,96874.95
2023-01-19T15:51:39.367Z,96873.90
2023-01-19T15:54:12.890Z,96872.44
2023-01-19T15:56:41.653Z,96873.08
2023-01-19T15:59:09.835Z,96871.81
2023-01-19T16:01:39.446Z,96875.90
2023-01-19T16:04:10.346Z,96875.08
2023-01-19T16:06:38.797Z,96880.69
2023-01-19T16:09:07.000Z,96881.77
2023-01-19T16:11:37.012Z,96882.77
2023-01-19T16:14:05.191Z,96886.13
2023-01-19T16:16:33.449Z,96884.46
2023-01-19T16:19:01.733Z,96888.09
2023-01-19T16:21:29.951Z,96888.85
2023-01-19T16:23:58.133Z,96890.57
2023-01-19T16:26:29.677Z,96890.66
2023-01-19T16:29:00.090Z,96890.17
2023-01-19T16:31:29.073Z,96891.46
2023-01-19T16:33:57.316Z,96895.48
2023-01-19T16:36:27.672Z,96901.30
2023-01-19T16:38:58.909Z,96906.63
2023-01-19T16:41:27.153Z,96909.47
2023-01-19T16:43:57.501Z,96908.84
2023-01-19T16:46:27.748Z,96909.83
2023-01-19T16:49:00.126Z,96911.88
2023-01-19T16:51:28.559Z,96910.55
2023-01-19T16:53:57.059Z,96908.95
2023-01-19T16:56:25.352Z,96910.98
2023-01-19T16:58:54.290Z,96913.54
2023-01-19T17:01:23.297Z,96913.80
2023-01-19T17:03:51.778Z,96914.73
2023-01-19T17:06:22.482Z,96917.51
2023-01-19T17:08:51.655Z,96916.10
2023-01-19T17:11:22.239Z,96916.89
2023-01-19T17:13:53.837Z,96914.82
2023-01-19T17:16:23.017Z,96915.64
2023-01-19T17:18:52.149Z,96915.59
2023-01-19T17:21:20.416Z,96917.05
2023-01-19T17:23:51.689Z,96916.33
2023-01-19T17:26:20.598Z,96919.82
2023-01-19T17:28:48.804Z,96918.08
2023-01-19T17:31:19.149Z,96918.31
2023-01-19T17:33:49.627Z,96918.16
2023-01-19T17:36:21.546Z,96919.86
2023-01-19T17:38:49.907Z,96915.27
2023-01-19T17:41:20.552Z,96919.04
2023-01-19T17:43:49.951Z,96915.13
2023-01-19T17:46:20.071Z,96916.84
2023-01-19T17:48:51.989Z,96921.58
2023-01-19T17:51:22.270Z,96922.98
2023-01-19T17:53:51.861Z,96925.16
2023-01-19T17:56:22.140Z,96925.46
2023-01-19T17:58:50.321Z,96921.06
2023-01-19T18:01:21.255Z,96915.20
2023-01-19T18:03:50.478Z,96915.92
2023-01-19T18:06:19.326Z,96919.00
2023-01-19T18:08:48.810Z,96916.42
2023-01-19T18:11:19.786Z,96919.88
2023-01-19T18:13:49.791Z,96923.78
2023-01-19T18:16:19.937Z,96926.88
2023-01-19T18:18:49.523Z,96925.21
2023-01-19T18:21:19.490Z,96930.89
2023-01-19T18:23:48.375Z,96932.29
2023-01-19T18:26:19.082Z,96932.02
2023-01-19T18:28:48.360Z,96933.30
2023-01-19T18:31:18.528Z,96933.18
2023-01-19T18:33:47.897Z,96930.91
2023-01-19T18:36:16.710Z,96932.38
2023-01-19T18:38:45.360Z,96933.80
2023-01-19T18:41:15.856Z,96939.52
2023-01-19T18:43:45.870Z,96939.19
2023-01-19T18:46:14.947Z,96939.62
2023-01-19T18:48:43.784Z,96940.95
2023-01-19T18:51:14.482Z,96946.27
2023-01-19T18:53:43.335Z,96944.96
2023-01-19T18:56:13.111Z,96944.97
2023-01-19T18:58:41.980Z,96948.77
2023-01-19T19:01:20.431Z,96950.96
2023-01-19T19:03:48.732Z,96952.06
2023-01-19T19:06:19.982Z,96953.98
2023-01-19T19:08:49.755Z,96949.61
2023-01-19T19:11:18.846Z,96950.81
2023-01-19T19:13:51.053Z,96958.88
2023-01-19T19:16:19.366Z,96958.80
2023-01-19T19:18:49.132Z,96958.59
2023-01-19T19:21:18.927Z,96958.75
2023-01-19T19:23:50.992Z,96960.22
2023-01-19T19:26:19.814Z,96967.39
2023-01-19T19:28:48.473Z,96972.43
2023-01-19T19:31:19.679Z,96977.27
2023-01-19T19:33:51.193Z,96979.14
2023-01-19T19:36:23.071Z,96984.66
2023-01-19T19:38:51.734Z,96981.00
2023-01-19T19:41:21.949Z,96986.24
2023-01-19T19:43:50.668Z,96989.92
2023-01-19T19:46:20.231Z,96992.22
2023-01-19T19:48:49.424Z,96998.47
2023-01-19T19:51:21.735Z,97003.30
2023-01-19T19:53:51.651Z,97008.23
2023-01-19T19:56:24.079Z,97010.94
2023-01-19T19:58:55.068Z,97017.98
2023-01-19T20:01:30.021Z,97020.55
2023-01-19T20:04:05.550Z,97026.96
2023-01-19T20:06:37.890Z,97030.44
2023-01-19T20:09:07.373Z,97032.66
2023-01-19T20:11:36.423Z,97040.38
2023-01-19T20:14:06.490Z,97047.20
2023-01-19T20:16:35.595Z,97046.30
2023-01-19T20:19:04.730Z,97045.44
2023-01-19T20:21:35.285Z,97050.64
2023-01-19T20:24:07.745Z,97052.61
2023-01-19T20:26:39.361Z,97058.75
2023-01-19T20:29:06.856Z,97063.05
2023-01-19T20:31:37.562Z,97067.53
2023-01-19T20:34:09.310Z,97069.21
2023-01-19T20:36:37.979Z,97069.02
2023-01-19T20:39:09.670Z,97073.61
2023-01-19T20:41:42.532Z,97073.97
2023-01-19T20:44:11.808Z,97081.29
2023-01-19T20:46:40.463Z,97084.58
2023-01-19T20:49:09.551Z,97087.96
2023-01-19T20:51:42.373Z,97090.42
2023-01-19T20:54:11.254Z,97092.35
2023-01-19T20:56:40.738Z,97098.46
2023-01-19T20:59:09.316Z,97101.33
2023-01-19T21:01:38.572Z,97106.88
2023-01-19T21:04:07.861Z,97109.74
2023-01-19T21:06:36.607Z,97114.63
2023-01-19T21:09:05.275Z,97118.26
2023-01-19T21:11:33.934Z,97123.16
2023-01-19T21:14:02.623Z,97125.88
2023-01-19T21:16:33.558Z,97130.77
2023-01-19T21:19:01.984Z,97131.29
2023-01-19T21:21:31.732Z,97134.02
2023-01-19T21:24:01.641Z,97132.10
2023-01-19T21:26:30.876Z,97136.91
2023-01-19T21:28:59.849Z,97136.52
2023-01-19T21:31:28.952Z,97141.09
2023-01-19T21:33:57.956Z,97140.42
2023-01-19T21:36:26.186Z,97141.14
2023-01-19T21:38:59.451Z,97138.98
2023-01-19T21:41:29.379Z,97139.44
2023-01-19T21:43:59.216Z,97145.64
2023-01-19T21:46:28.427Z,97145.14
2023-01-19T21:48:57.446Z,97143.55
2023-01-19T21:51:25.947Z,97142.47
2023-01-19T21:53:58.775Z,97148.71
2023-01-19T21:56:28.223Z,97152.45
2023-01-19T21:58:58.687Z,97154.05
2023-01-19T22:01:27.328Z,97153.27
2023-01-19T22:03:57.098Z,97152.33
2023-01-19T22:06:26.269Z,97155.62
2023-01-19T22:08:57.066Z,97165.19
2023-01-19T22:11:25.440Z,97172.31
2023-01-19T22:13:54.027Z,97172.24
2023-01-19T22:16:22.913Z,97176.12
2023-01-19T22:18:53.321Z,97175.77
2023-01-19T22:21:23.913Z,97178.81
2023-01-19T22:23:54.569Z,97177.45
2023-01-19T22:26:23.007Z,97172.68
2023-01-19T22:28:54.737Z,97175.77
2023-01-19T22:31:23.659Z,97175.89
2023-01-19T22:33:52.156Z,97178.89
2023-01-19T22:36:22.261Z,97182.90
2023-01-19T22:38:51.954Z,97182.70
2023-01-19T22:41:22.604Z,97179.28
2023-01-19T22:43:52.312Z,97176.70
2023-01-19T22:46:22.585Z,97180.95
2023-01-19T22:48:52.156Z,97183.20
2023-01-19T22:51:21.981Z,97186.88
2023-01-19T22:53:50.244Z,97193.42
2023-01-19T22:56:20.543Z,97191.88
2023-01-19T22:58:49.766Z,97189.89
2023-01-19T23:01:20.563Z,97190.20
2023-01-19T23:03:49.211Z,97191.71
2023-01-19T23:06:21.288Z,97195.40
2023-01-19T23:08:49.901Z,97194.48
2023-01-19T23:11:20.526Z,97197.70
2023-01-19T23:13:50.045Z,97201.74
2023-01-19T23:16:19.001Z,97205.73
2023-01-19T23:18:47.704Z,97204.66
2023-01-19T23:21:18.100Z,97202.54
2023-01-19T23:23:46.425Z,97202.09
2023-01-19T23:26:16.778Z,97203.70
2023-01-19T23:28:45.958Z,97206.21
2023-01-19T23:31:16.901Z,97206.95
2023-01-19T23:33:45.159Z,97209.48
2023-01-19T23:36:14.291Z,97208.38
2023-01-19T23:38:47.753Z,97209.98
2023-01-19T23:41:16.127Z,97212.87
2023-01-19T23:43:44.731Z,97218.51
2023-01-19T23:46:13.772Z,97220.20
2023-01-19T23:48:44.836Z,97220.86
2023-01-19T23:51:15.477Z,97228.66
2023-01-19T23:53:44.017Z,97230.98
2023-01-19T23:56:14.172Z,97233.08
2023-01-19T23:58:42.774Z,97238.38
